createdAt,value
2022-11-18T00:01:16.588Z,1.20
2022-11-18T00:03:44.194Z,1.30
2022-11-18T00:06:18.589Z,0.95
2022-11-18T00:08:45.555Z,1.05
2022-11-18T00:11:37.423Z,1.60
2022-11-18T00:14:20.745Z,3.15
2022-11-18T00:16:48.837Z,2.22
2022-11-18T00:19:18.681Z,2.65
2022-11-18T00:21:46.060Z,2.47
2022-11-18T00:24:12.809Z,2.15
2022-11-18T00:26:39.554Z,1.73
2022-11-18T00:29:06.308Z,1.45
2022-11-18T00:31:37.972Z,1.77
2022-11-18T00:34:05.292Z,1.38
2022-11-18T00:36:34.420Z,1.52
2022-11-18T00:39:01.167Z,5.38
2022-11-18T00:41:47.867Z,1.65
2022-11-18T00:44:14.588Z,2.25
2022-11-18T00:46:41.592Z,2.75
2022-11-18T00:49:10.771Z,2.40
2022-11-18T00:51:38.076Z,1.23
2022-11-18T00:54:07.133Z,2.00
2022-11-18T00:56:38.572Z,1.48
2022-11-18T00:59:05.381Z,2.15
2022-11-18T01:01:34.378Z,1.63
2022-11-18T01:04:01.285Z,2.78
2022-11-18T01:06:28.449Z,3.13
2022-11-18T01:08:57.310Z,3.75
2022-11-18T01:11:42.691Z,2.70
2022-11-18T01:14:09.437Z,5.30
2022-11-18T01:16:36.107Z,1.98
2022-11-18T01:19:02.825Z,1.92
2022-11-18T01:21:30.043Z,2.28
2022-11-18T01:23:56.725Z,2.92
2022-11-18T01:26:23.451Z,1.50
2022-11-18T01:28:52.577Z,1.92
2022-11-18T01:31:19.730Z,1.92
2022-11-18T01:33:47.072Z,1.70
2022-11-18T01:36:21.264Z,1.88
2022-11-18T01:38:50.803Z,3.33
2022-11-18T01:41:19.227Z,2.38
2022-11-18T01:44:02.307Z,3.03
2022-11-18T01:46:31.114Z,2.97
2022-11-18T01:49:12.650Z,3.60
2022-11-18T01:51:46.899Z,2.42
2022-11-18T01:54:20.188Z,2.60
2022-11-18T01:56:54.156Z,4.00
2022-11-18T01:59:34.616Z,5.05
2022-11-18T02:02:10.787Z,2.78
2022-11-18T02:04:40.399Z,2.17
2022-11-18T02:07:09.946Z,2.40
2022-11-18T02:09:39.513Z,0.82
2022-11-18T02:12:08.119Z,1.17
2022-11-18T02:14:40.452Z,1.00
2022-11-18T02:17:22.464Z,1.38
2022-11-18T02:19:57.149Z,1.05
2022-11-18T02:22:36.047Z,1.75
2022-11-18T02:25:34.365Z,2.13
2022-11-18T02:28:31.397Z,2.55
2022-11-18T02:31:15.980Z,2.67
2022-11-18T02:34:01.046Z,1.23
2022-11-18T02:36:55.617Z,2.83
2022-11-18T02:39:45.673Z,3.08
2022-11-18T02:42:14.914Z,1.77
2022-11-18T02:44:46.129Z,2.65
2022-11-18T02:47:15.397Z,1.52
2022-11-18T02:49:49.422Z,2.30
2022-11-18T02:52:18.005Z,3.08
2022-11-18T02:54:48.780Z,2.25
2022-11-18T02:57:16.494Z,3.47
2022-11-18T02:59:43.225Z,1.88
2022-11-18T03:02:18.960Z,3.30
2022-11-18T03:04:48.313Z,1.30
2022-11-18T03:07:34.621Z,2.65
2022-11-18T03:10:02.382Z,1.75
2022-11-18T03:13:10.346Z,2.38
2022-11-18T03:15:59.429Z,1.70
2022-11-18T03:18:44.331Z,2.05
2022-11-18T03:21:23.652Z,2.38
2022-11-18T03:23:59.570Z,2.00
2022-11-18T03:26:33.192Z,2.00
2022-11-18T03:29:18.037Z,2.05
2022-11-18T03:32:00.982Z,1.20
2022-11-18T03:34:36.003Z,2.25
2022-11-18T03:37:10.252Z,1.92
2022-11-18T03:39:42.837Z,2.72
2022-11-18T03:42:35.728Z,2.05
2022-11-18T03:45:17.377Z,2.25
2022-11-18T03:47:52.708Z,1.00
2022-11-18T03:50:28.374Z,2.38
2022-11-18T03:52:55.928Z,2.78
2022-11-18T03:55:25.419Z,2.17
2022-11-18T03:58:12.584Z,1.35
2022-11-18T04:00:44.578Z,2.05
2022-11-18T04:03:12.196Z,2.63
2022-11-18T04:05:41.591Z,1.35
2022-11-18T04:08:14.926Z,1.10
2022-11-18T04:10:45.629Z,2.05
2022-11-18T04:13:16.493Z,3.42
2022-11-18T04:15:43.316Z,2.80
2022-11-18T04:18:10.998Z,1.83
2022-11-18T04:20:39.900Z,2.90
2022-11-18T04:23:11.379Z,1.63
2022-11-18T04:25:38.757Z,4.00
2022-11-18T04:28:06.175Z,2.03
2022-11-18T04:30:35.620Z,1.42
2022-11-18T04:33:02.721Z,1.58
2022-11-18T04:35:29.480Z,2.35
2022-11-18T04:37:56.154Z,1.48
2022-11-18T04:40:22.913Z,2.55
2022-11-18T04:42:49.583Z,1.83
2022-11-18T04:45:16.302Z,2.13
2022-11-18T04:47:45.496Z,1.52
2022-11-18T04:50:14.586Z,2.45
2022-11-18T04:52:41.418Z,1.67
2022-11-18T04:55:10.460Z,3.08
2022-11-18T04:57:37.198Z,2.17
2022-11-18T05:00:07.104Z,2.38
2022-11-18T05:02:39.046Z,3.90
2022-11-18T05:05:08.367Z,2.67
2022-11-18T05:07:35.080Z,3.85
2022-11-18T05:10:01.779Z,2.20
2022-11-18T05:12:49.687Z,2.15
2022-11-18T05:15:17.992Z,3.30
2022-11-18T05:17:45.058Z,1.58
2022-11-18T05:20:11.997Z,2.25
2022-11-18T05:22:38.803Z,1.85
2022-11-18T05:25:12.462Z,3.55
2022-11-18T05:27:39.131Z,1.88
2022-11-18T05:30:08.599Z,0.57
2022-11-18T05:32:38.151Z,2.13
2022-11-18T05:35:07.428Z,1.02
2022-11-18T05:37:38.775Z,1.40
2022-11-18T05:40:06.269Z,1.48
2022-11-18T05:42:54.038Z,0.88
2022-11-18T05:45:25.677Z,1.20
2022-11-18T05:48:00.664Z,0.88
2022-11-18T05:50:33.055Z,0.35
2022-11-18T05:52:59.928Z,0.30
2022-11-18T05:55:31.859Z,1.27
2022-11-18T05:57:58.551Z,1.10
2022-11-18T06:00:27.647Z,3.33
2022-11-18T06:02:58.222Z,1.90
2022-11-18T06:05:28.806Z,2.38
2022-11-18T06:08:00.791Z,2.25
2022-11-18T06:10:34.891Z,1.33
2022-11-18T06:13:11.327Z,0.85
2022-11-18T06:15:42.091Z,0.82
2022-11-18T06:18:27.161Z,2.05
2022-11-18T06:20:59.704Z,0.93
2022-11-18T06:23:33.925Z,1.60
2022-11-18T06:26:03.247Z,1.67
2022-11-18T06:28:30.793Z,0.90
2022-11-18T06:30:58.963Z,1.77
2022-11-18T06:33:25.746Z,0.75
2022-11-18T06:35:52.417Z,0.63
2022-11-18T06:38:21.496Z,0.68
2022-11-18T06:40:48.143Z,1.40
2022-11-18T06:43:33.488Z,1.17
2022-11-18T06:46:20.007Z,1.17
2022-11-18T06:48:46.856Z,1.88
2022-11-18T06:51:13.607Z,2.38
2022-11-18T06:53:43.326Z,1.23
2022-11-18T06:56:12.633Z,1.08
2022-11-18T06:58:42.193Z,1.83
2022-11-18T07:01:14.359Z,2.17
2022-11-18T07:03:44.795Z,2.33
2022-11-18T07:06:15.183Z,2.63
2022-11-18T07:08:42.610Z,1.00
2022-11-18T07:11:13.208Z,1.30
2022-11-18T07:13:43.857Z,2.38
2022-11-18T07:16:15.328Z,1.58
2022-11-18T07:18:43.781Z,2.93
2022-11-18T07:21:18.590Z,1.90
2022-11-18T07:23:46.007Z,1.08
2022-11-18T07:26:13.578Z,2.75
2022-11-18T07:28:40.584Z,1.75
2022-11-18T07:31:12.364Z,3.53
2022-11-18T07:33:40.639Z,5.68
2022-11-18T07:36:14.531Z,3.72
2022-11-18T07:38:46.416Z,1.48
2022-11-18T07:41:14.792Z,2.38
2022-11-18T07:43:45.278Z,4.03
2022-11-18T07:46:35.946Z,1.02
2022-11-18T07:49:06.191Z,3.25
2022-11-18T07:51:35.957Z,7.85
2022-11-18T07:54:07.770Z,5.28
2022-11-18T07:56:34.521Z,3.03
2022-11-18T07:59:03.579Z,4.85
2022-11-18T08:01:31.141Z,3.22
2022-11-18T08:04:04.661Z,3.60
2022-11-18T08:06:33.123Z,2.05
2022-11-18T08:08:59.960Z,3.83
2022-11-18T08:11:27.075Z,2.75
2022-11-18T08:13:53.750Z,3.58
2022-11-18T08:16:25.806Z,2.58
2022-11-18T08:21:23.118Z,1.67
2022-11-18T08:23:54.697Z,0.75
2022-11-18T08:26:27.040Z,1.23
2022-11-18T08:28:56.978Z,1.63
2022-11-18T08:31:26.586Z,1.13
2022-11-18T08:34:01.730Z,0.30
2022-11-18T08:36:32.516Z,3.00
2022-11-18T08:39:01.475Z,3.20
2022-11-18T08:41:33.748Z,1.35
2022-11-18T08:44:04.409Z,0.85
2022-11-18T08:46:33.747Z,0.80
2022-11-18T08:49:01.003Z,1.55
2022-11-18T08:51:30.033Z,2.05
2022-11-18T08:53:59.179Z,1.95
2022-11-18T08:56:26.171Z,0.60
2022-11-18T08:58:53.601Z,1.15
2022-11-18T09:01:20.619Z,2.88
2022-11-18T09:03:48.474Z,1.23
2022-11-18T09:06:24.753Z,1.70
2022-11-18T09:08:54.522Z,2.47
2022-11-18T09:11:24.772Z,2.45
2022-11-18T09:16:48.456Z,1.98
2022-11-18T09:19:46.200Z,2.72
2022-11-18T09:22:05.789Z,2.05
2022-11-18T09:24:32.957Z,2.67
2022-11-18T09:27:02.556Z,2.28
2022-11-18T09:29:31.944Z,1.52
2022-11-18T09:32:01.905Z,1.90
2022-11-18T09:34:31.919Z,4.72
2022-11-18T09:36:58.687Z,2.20
2022-11-18T09:39:25.680Z,2.60
2022-11-18T09:42:21.370Z,4.43
2022-11-18T09:45:03.926Z,6.38
2022-11-18T09:47:37.602Z,2.25
2022-11-18T09:50:41.788Z,2.70
2022-11-18T09:53:20.783Z,3.22
2022-11-18T09:55:49.049Z,3.13
2022-11-18T09:58:21.712Z,3.45
2022-11-18T10:00:53.004Z,8.48
2022-11-18T10:03:33.582Z,9.50
2022-11-18T10:06:09.291Z,23.58
2022-11-18T10:08:38.805Z,4.78
2022-11-18T10:11:07.702Z,4.45
2022-11-18T10:13:43.577Z,5.28
2022-11-18T10:16:28.408Z,3.83
2022-11-18T10:19:30.081Z,7.22
2022-11-18T10:22:24.763Z,5.27
2022-11-18T10:24:56.074Z,2.20
2022-11-18T10:27:29.537Z,2.10
2022-11-18T10:29:58.096Z,4.75
2022-11-18T10:32:24.914Z,1.13
2022-11-18T10:34:58.840Z,3.72
2022-11-18T10:37:45.813Z,1.75
2022-11-18T10:40:25.540Z,2.42
2022-11-18T10:42:54.679Z,3.13
2022-11-18T10:45:21.442Z,6.88
2022-11-18T10:48:19.214Z,2.20
2022-11-18T10:50:56.001Z,2.70
2022-11-18T10:53:31.326Z,2.88
2022-11-18T10:56:02.392Z,4.55
2022-11-18T10:58:31.025Z,3.87
2022-11-18T11:01:24.686Z,2.22
2022-11-18T11:04:21.267Z,1.10
2022-11-18T11:06:52.913Z,0.90
2022-11-18T11:09:25.567Z,1.48
2022-11-18T11:12:18.349Z,1.85
2022-11-18T11:14:52.178Z,2.25
2022-11-18T11:17:31.272Z,2.10
2022-11-18T11:20:19.247Z,0.70
2022-11-18T11:22:51.395Z,0.90
2022-11-18T11:25:29.839Z,1.42
2022-11-18T11:28:28.120Z,2.13
2022-11-18T11:31:03.408Z,2.25
2022-11-18T11:33:56.205Z,0.73
2022-11-18T11:36:49.757Z,1.38
2022-11-18T11:39:37.632Z,1.17
2022-11-18T11:42:15.540Z,3.72
2022-11-18T11:45:07.076Z,1.45
2022-11-18T11:47:49.443Z,1.95
2022-11-18T11:51:04.286Z,2.15
2022-11-18T11:53:46.335Z,2.83
2022-11-18T11:56:34.390Z,1.00
2022-11-18T11:59:03.331Z,1.63
2022-11-18T12:01:52.908Z,5.88
2022-11-18T12:04:49.099Z,1.73
2022-11-18T12:07:22.051Z,2.53
2022-11-18T12:10:20.811Z,2.83
2022-11-18T12:13:08.830Z,4.60
2022-11-18T12:15:44.817Z,3.05
2022-11-18T12:18:30.327Z,1.35
2022-11-18T12:20:59.527Z,1.70
2022-11-18T12:23:28.478Z,1.42
2022-11-18T12:26:03.067Z,2.47
2022-11-18T12:28:41.739Z,1.15
2022-11-18T12:31:20.744Z,2.13
2022-11-18T12:34:20.832Z,2.20
2022-11-18T12:36:50.199Z,2.65
2022-11-18T12:39:28.287Z,1.95
2022-11-18T12:42:21.842Z,1.73
2022-11-18T12:44:52.929Z,2.17
2022-11-18T12:47:43.817Z,2.28
2022-11-18T12:50:13.865Z,3.67
2022-11-18T12:52:40.563Z,3.40
2022-11-18T12:55:24.824Z,2.30
2022-11-18T12:57:54.075Z,1.40
2022-11-18T13:00:23.487Z,2.17
2022-11-18T13:03:01.247Z,2.45
2022-11-18T13:05:33.748Z,1.77
2022-11-18T13:08:17.053Z,2.17
2022-11-18T13:10:46.208Z,1.98
2022-11-18T13:13:27.307Z,2.65
2022-11-18T13:16:15.916Z,1.65
2022-11-18T13:18:57.948Z,2.25
2022-11-18T13:21:48.047Z,1.80
2022-11-18T13:24:23.495Z,2.75
2022-11-18T13:26:58.900Z,2.47
2022-11-18T13:29:54.094Z,1.88
2022-11-18T13:32:23.031Z,1.88
2022-11-18T13:35:07.383Z,2.78
2022-11-18T13:37:34.353Z,6.47
2022-11-18T13:40:05.444Z,2.75
2022-11-18T13:42:37.993Z,1.23
2022-11-18T13:45:06.136Z,2.95
2022-11-18T13:47:42.947Z,2.35
2022-11-18T13:50:15.528Z,3.05
2022-11-18T13:53:08.125Z,7.55
2022-11-18T13:55:53.850Z,6.28
2022-11-18T13:59:10.474Z,3.47
2022-11-18T14:01:35.043Z,3.40
2022-11-18T14:04:18.700Z,2.80
2022-11-18T14:06:50.634Z,2.58
2022-11-18T14:12:07.500Z,3.25
2022-11-18T14:14:41.957Z,3.08
2022-11-18T14:17:23.825Z,4.13
2022-11-18T14:19:59.387Z,3.90
2022-11-18T14:22:27.826Z,3.33
2022-11-18T14:25:01.943Z,5.35
2022-11-18T14:27:49.257Z,4.18
2022-11-18T14:30:31.665Z,3.55
2022-11-18T14:33:16.730Z,3.58
2022-11-18T14:35:53.534Z,3.30
2022-11-18T14:38:40.735Z,3.90
2022-11-18T14:41:15.731Z,3.25
2022-11-18T14:43:45.946Z,3.70
2022-11-18T14:46:18.290Z,3.30
2022-11-18T14:48:46.239Z,4.20
2022-11-18T14:51:14.969Z,4.75
2022-11-18T14:53:45.939Z,3.47
2022-11-18T14:56:26.885Z,3.28
2022-11-18T14:58:53.690Z,3.05
2022-11-18T15:01:30.549Z,4.18
2022-11-18T15:04:00.066Z,3.20
2022-11-18T15:06:29.010Z,2.83
2022-11-18T15:08:55.962Z,3.72
2022-11-18T15:11:22.924Z,3.53
2022-11-18T15:13:52.475Z,3.60
2022-11-18T15:16:27.048Z,3.47
2022-11-18T15:19:03.199Z,6.32
2022-11-18T15:21:32.740Z,5.22
2022-11-18T15:24:01.563Z,3.97
2022-11-18T15:26:37.207Z,3.30
2022-11-18T15:29:06.782Z,5.25
2022-11-18T15:31:38.139Z,5.60
2022-11-18T15:34:07.436Z,2.90
2022-11-18T15:36:34.239Z,6.68
2022-11-18T15:39:03.505Z,5.95
2022-11-18T15:41:33.931Z,4.75
2022-11-18T15:44:03.123Z,13.85
2022-11-18T15:46:30.424Z,10.68
2022-11-18T15:49:02.752Z,8.75
2022-11-18T15:51:30.577Z,4.85
2022-11-18T15:53:58.340Z,5.55
2022-11-18T15:56:31.605Z,5.18
2022-11-18T15:59:03.198Z,6.57
2022-11-18T16:01:35.577Z,6.85
2022-11-18T16:04:04.055Z,6.82
2022-11-18T16:06:33.723Z,9.25
2022-11-18T16:09:00.993Z,8.25
2022-11-18T16:11:47.265Z,8.52
2022-11-18T16:14:16.690Z,8.73
2022-11-18T16:16:45.879Z,10.80
2022-11-18T16:19:21.761Z,4.05
2022-11-18T16:21:51.606Z,4.95
2022-11-18T16:24:24.250Z,3.88
2022-11-18T16:26:53.413Z,6.22
2022-11-18T16:29:45.369Z,10.07
2022-11-18T16:32:16.819Z,9.73
2022-11-18T16:34:43.586Z,15.30
2022-11-18T16:37:12.614Z,4.55
2022-11-18T16:39:41.546Z,6.15
2022-11-18T16:42:14.441Z,4.60
2022-11-18T16:44:44.818Z,3.08
2022-11-18T16:47:15.455Z,3.10
2022-11-18T16:49:44.817Z,6.82
2022-11-18T16:52:13.766Z,6.93
2022-11-18T16:54:45.343Z,8.50
2022-11-18T16:59:42.158Z,6.93
2022-11-18T17:02:14.980Z,6.20
2022-11-18T17:04:44.298Z,5.07
2022-11-18T17:07:16.099Z,5.45
2022-11-18T17:09:45.144Z,6.00
2022-11-18T17:12:16.576Z,5.60
2022-11-18T17:14:43.377Z,5.22
2022-11-18T17:17:12.549Z,5.00
2022-11-18T17:19:39.250Z,4.07
2022-11-18T17:22:08.148Z,4.13
2022-11-18T17:24:34.899Z,3.95
2022-11-18T17:27:06.636Z,6.32
2022-11-18T17:29:35.973Z,5.07
2022-11-18T17:32:04.962Z,8.63
2022-11-18T17:34:33.924Z,8.15
2022-11-18T17:37:06.820Z,6.72
2022-11-18T17:39:38.642Z,4.00
2022-11-18T17:42:13.820Z,4.47
2022-11-18T17:44:40.606Z,5.13
2022-11-18T17:47:07.361Z,6.75
2022-11-18T17:49:34.179Z,6.60
2022-11-18T17:52:01.013Z,6.53
2022-11-18T17:54:27.823Z,7.57
2022-11-18T17:56:54.610Z,7.80
2022-11-18T17:59:21.443Z,7.88
2022-11-18T18:01:49.847Z,10.52
2022-11-18T18:04:20.688Z,8.68
2022-11-18T18:06:52.785Z,7.18
2022-11-18T18:09:21.770Z,9.57
2022-11-18T18:11:54.721Z,12.02
2022-11-18T18:14:23.589Z,18.60
2022-11-18T18:16:51.078Z,12.55
2022-11-18T18:19:20.332Z,9.10
2022-11-18T18:21:47.324Z,5.93
2022-11-18T18:24:19.727Z,8.98
2022-11-18T18:26:49.383Z,3.28
2022-11-18T18:29:25.254Z,8.73
2022-11-18T18:31:54.512Z,6.65
2022-11-18T18:34:25.936Z,9.70
2022-11-18T18:36:55.279Z,5.55
2022-11-18T18:39:21.992Z,7.97
2022-11-18T18:41:48.755Z,10.02
2022-11-18T18:44:18.805Z,9.88
2022-11-18T18:46:48.086Z,25.38
2022-11-18T18:49:20.662Z,19.98
2022-11-18T18:51:50.202Z,6.50
2022-11-18T18:54:22.157Z,7.07
2022-11-18T18:56:51.241Z,6.80
2022-11-18T18:59:18.105Z,9.95
2022-11-18T19:01:47.148Z,14.48
2022-11-18T19:04:14.033Z,27.85
2022-11-18T19:06:59.834Z,10.57
2022-11-18T19:09:29.089Z,9.68
2022-11-18T19:12:24.480Z,11.40
2022-11-18T19:14:51.368Z,13.93
2022-11-18T19:17:18.233Z,10.38
2022-11-18T19:20:05.694Z,12.70
2022-11-18T19:22:35.707Z,14.48
2022-11-18T19:25:05.192Z,14.82
2022-11-18T19:27:32.070Z,7.85
2022-11-18T19:30:01.005Z,4.40
2022-11-18T19:32:27.872Z,4.07
2022-11-18T19:34:54.869Z,5.97
2022-11-18T19:37:38.203Z,5.88
2022-11-18T19:40:25.197Z,5.32
2022-11-18T19:42:58.110Z,4.28
2022-11-18T19:45:25.580Z,2.63
2022-11-18T19:48:01.745Z,4.30
2022-11-18T19:50:35.110Z,4.00
2022-11-18T19:53:25.595Z,3.88
2022-11-18T19:56:02.864Z,4.82
2022-11-18T19:58:33.277Z,4.72
2022-11-18T20:04:03.078Z,5.57
2022-11-18T20:06:35.217Z,6.90
2022-11-18T20:11:31.149Z,5.63
2022-11-18T20:13:57.990Z,12.75
2022-11-18T20:16:27.309Z,6.68
2022-11-18T20:18:56.123Z,8.10
2022-11-18T20:21:26.802Z,10.20
2022-11-18T20:23:58.887Z,8.45
2022-11-18T20:28:57.855Z,4.50
2022-11-18T20:31:28.186Z,4.32
2022-11-18T20:33:59.077Z,3.90
2022-11-18T20:36:39.013Z,4.60
2022-11-18T20:39:08.372Z,4.68
2022-11-18T20:41:37.600Z,4.80
2022-11-18T20:44:08.265Z,7.15
2022-11-18T20:46:39.554Z,4.35
2022-11-18T20:49:08.556Z,6.10
2022-11-18T20:51:35.589Z,9.38
2022-11-18T20:54:07.653Z,3.60
2022-11-18T20:59:01.205Z,4.85
2022-11-18T21:01:29.854Z,3.92
2022-11-18T21:04:01.789Z,5.43
2022-11-18T21:06:34.388Z,5.20
2022-11-18T21:09:03.919Z,4.55
2022-11-18T21:11:33.160Z,4.75
2022-11-18T21:14:23.876Z,4.90
2022-11-18T21:16:57.499Z,4.07
2022-11-18T21:19:27.559Z,6.07
2022-11-18T21:21:54.967Z,6.72
2022-11-18T21:24:32.825Z,6.38
2022-11-18T21:27:03.807Z,4.55
2022-11-18T21:29:34.932Z,5.53
2022-11-18T21:32:01.890Z,5.68
2022-11-18T21:34:32.008Z,6.30
2022-11-18T21:37:01.157Z,4.97
2022-11-18T21:39:27.940Z,3.60
2022-11-18T21:41:56.647Z,4.50
2022-11-18T21:44:25.554Z,6.35
2022-11-18T21:46:54.509Z,3.58
2022-11-18T21:49:23.786Z,3.17
2022-11-18T21:51:50.704Z,4.05
2022-11-18T21:54:18.396Z,6.18
2022-11-18T21:56:47.782Z,2.53
2022-11-18T21:59:17.201Z,3.40
2022-11-18T22:01:46.783Z,4.95
2022-11-18T22:04:35.962Z,4.45
2022-11-18T22:07:05.318Z,3.03
2022-11-18T22:09:37.249Z,3.78
2022-11-18T22:12:08.018Z,2.50
2022-11-18T22:14:35.010Z,3.33
2022-11-18T22:17:04.336Z,3.10
2022-11-18T22:19:33.392Z,5.38
2022-11-18T22:22:02.349Z,4.25
2022-11-18T22:24:31.446Z,3.38
2022-11-18T22:27:00.659Z,4.25
2022-11-18T22:29:29.741Z,3.22
2022-11-18T22:31:57.140Z,2.88
2022-11-18T22:34:26.438Z,3.90
2022-11-18T22:36:53.151Z,4.10
2022-11-18T22:39:20.064Z,4.28
2022-11-18T22:42:05.688Z,4.10
2022-11-18T22:44:37.663Z,4.22
2022-11-18T22:47:09.399Z,2.70
2022-11-18T22:49:38.337Z,2.95
2022-11-18T22:52:07.715Z,4.65
2022-11-18T22:54:40.026Z,4.43
2022-11-18T22:57:09.863Z,4.85
2022-11-18T22:59:41.282Z,4.75
2022-11-18T23:02:10.295Z,3.80
2022-11-18T23:04:37.042Z,3.47
2022-11-18T23:07:04.119Z,3.25
2022-11-18T23:09:30.991Z,3.13
2022-11-18T23:12:16.434Z,4.45
2022-11-18T23:14:45.765Z,3.55
2022-11-18T23:17:15.915Z,4.68
2022-11-18T23:19:46.949Z,2.90
2022-11-18T23:22:15.922Z,4.53
2022-11-18T23:24:44.863Z,1.77
2022-11-18T23:27:14.034Z,3.95
2022-11-18T23:29:43.167Z,3.55
2022-11-18T23:32:09.827Z,4.18
2022-11-18T23:34:36.616Z,3.67
2022-11-18T23:37:05.806Z,5.50
2022-11-18T23:39:32.518Z,4.60
2022-11-18T23:42:01.446Z,4.68
2022-11-18T23:45:00.972Z,3.75
2022-11-18T23:47:30.643Z,4.30
2022-11-18T23:49:57.361Z,4.15
2022-11-18T23:52:24.276Z,2.38
2022-11-18T23:54:54.512Z,3.42
2022-11-18T23:57:21.306Z,3.33
2022-11-18T23:59:50.475Z,2.63
